Saturday, February 24, 2018, 9:57 AM CST
Back to Local

KPWK, Chicago Executive Airport

Location: Wheeling, IL, United States Lat: 42.117
Local Time: 9:57 AM CST (15:57 GMT) Lon: -87.9
Time Zone: US/Central Elev: 646 ft

Show me the last for .
Show Coded

Time T Td Feel RH Dir Speed Gust Alt SLP Vis Weather Sky Remarks
2018-02-24 08:52 35 30 28 81 90° 9 - 30.18 30.20 9 OVC100 None
2018-02-24 08:33 35 30 29 81 80° 8 - 30.18 - 9 SCT018 OVC100 None
2018-02-24 07:52 35 29 28 78 90° 9 - 30.19 30.21 9 OVC019 None
2018-02-24 06:52 35 30 27 81 70° 10 - 30.19 30.21 9 OVC017 None
2018-02-24 05:52 35 30 29 81 60° 8 - 30.20 30.21 10 OVC020 24-hr Precip Total (6am): 0.01"
6-hr Min Temp (6am): 32.0°F
6-hr Max Temp (6am): 35.1°F
2018-02-24 04:52 34 30 28 85 50° 7 - 30.21 30.23 10 OVC017 None
2018-02-24 04:36 34 30 27 85 50° 9 - 30.22 - 10 OVC015 None
2018-02-24 04:12 33 30 27 88 50° 7 - 30.23 - 10 BKN014 BKN022 None
2018-02-24 04:05 33 30 27 88 40° 7 - 30.23 - 10 SCT014 BKN022 None
2018-02-24 03:52 33 30 26 88 30° 8 - 30.23 30.24 10 FEW012 SCT020 None
2018-02-24 02:52 33 29 27 84 30° 7 - 30.25 30.27 10 CLR None
2018-02-24 01:52 33 29 26 84 360° 8 - 30.24 30.25 9 CLR None
2018-02-24 00:52 32 29 26 88 340° 6 - 30.26 30.27 8 CLR None
2018-02-23 23:52 33 29 30 84 300° 3 - 30.28 30.30 9 CLR 6-hr Min Temp (12am): 33.1°F
6-hr Max Temp (12am): 39.9°F
24-hr Min Temp (12am): 33.1°F
24-hr Max Temp (12am): 45.0°F
2018-02-23 22:52 34 30 - 85 - Calm - 30.28 30.29 9 CLR None
2018-02-23 21:52 35 30 30 81 310° 6 - 30.27 30.29 10 CLR None
2018-02-23 20:52 36 31 30 81 300° 8 - 30.27 30.28 10 FEW018 None
2018-02-23 19:52 38 33 34 82 250° 5 - 30.26 30.28 10 FEW019 None
2018-02-23 18:52 39 33 36 79 Variable 5 - 30.26 30.27 10 SCT021 None
2018-02-23 17:52 39 33 35 79 260° 6 - 30.24 30.25 10 OVC019 6-hr Min Temp (6pm): 39.0°F
6-hr Max Temp (6pm): 41.0°F
2018-02-23 16:52 39 33 32 79 260° 10 - 30.23 30.24 10 OVC016 None
2018-02-23 16:09 39 33 32 79 270° 10 - 30.23 - 10 OVC015 None
2018-02-23 15:52 39 34 32 81 250° 12 - 30.22 30.23 10 OVC013 None
2018-02-23 14:52 39 35 33 85 250° 8 - 30.21 30.22 10 OVC011 None
2018-02-23 13:52 40 36 33 85 270° 10 - 30.18 30.19 10 OVC011 None
2018-02-23 13:05 41 37 32 85 280° 12 20 30.17 - 10 OVC010 None
2018-02-23 12:52 41 37 31 85 270° 15 23 30.17 30.18 10 OVC009 None
2018-02-23 11:52 41 37 34 85 260° 13 - 30.16 30.18 10 OVC009 6-hr Precip Total (12pm): 0.01"
6-hr Min Temp (12pm): 41.0°F
6-hr Max Temp (12pm): 45.0°F
2018-02-23 10:52 42 38 32 85 260° 16 24 30.15 30.16 10 OVC009 None
2018-02-23 10:32 42 39 32 88 270° 17 24 30.14 - 10 OVC009 None
2018-02-23 10:07 43 40 34 88 250° 15 22 30.13 - 10 OVC012 None

Support USWX by starting your Amazon purchase here.